sensor_id;sensor_type;location;lat;lon;timestamp;pressure;altitude;pressure_sealevel;temperature;humidity
5350;BME280;2697;42.144;24.794;2022-09-12T00:00:26;157413.03;;;18.74;100.00
5350;BME280;2697;42.144;24.794;2022-09-12T00:02:53;157431.59;;;18.81;100.00
5350;BME280;2697;42.144;24.794;2022-09-12T00:05:19;157415.69;;;18.75;100.00
5350;BME280;2697;42.144;24.794;2022-09-12T00:07:45;157395.78;;;18.67;100.00
5350;BME280;2697;42.144;24.794;2022-09-12T00:10:10;157406.41;;;18.71;100.00
5350;BME280;2697;42.144;24.794;2022-09-12T00:12:36;157413.03;;;18.74;100.00
5350;BME280;2697;42.144;24.794;2022-09-12T00:15:02;157397.13;;;18.68;100.00
5350;BME280;2697;42.144;24.794;2022-09-12T00:17:27;157405.09;;;18.71;100.00
5350;BME280;2697;42.144;24.794;2022-09-12T00:19:52;157405.09;;;18.71;100.00
5350;BME280;2697;42.144;24.794;2022-09-12T00:22:19;157403.72;;;18.70;100.00
5350;BME280;2697;42.144;24.794;2022-09-12T00:24:44;157397.13;;;18.68;100.00
5350;BME280;2697;42.144;24.794;2022-09-12T00:27:09;157420.97;;;18.77;100.00
5350;BME280;2697;42.144;24.794;2022-09-12T00:29:35;157407.75;;;18.72;100.00
5350;BME280;2697;42.144;24.794;2022-09-12T00:32:00;157418.31;;;18.76;100.00
5350;BME280;2697;42.144;24.794;2022-09-12T00:34:26;157418.31;;;18.76;100.00
5350;BME280;2697;42.144;24.794;2022-09-12T00:36:51;157378.50;;;18.61;100.00
5350;BME280;2697;42.144;24.794;2022-09-12T00:39:17;157357.34;;;18.52;100.00
5350;BME280;2697;42.144;24.794;2022-09-12T00:41:43;157309.66;;;18.34;100.00
5350;BME280;2697;42.144;24.794;2022-09-12T00:51:58;157230.16;;;18.04;100.00
5350;BME280;2697;42.144;24.794;2022-09-12T00:54:29;157216.94;;;17.99;100.00
5350;BME280;2697;42.144;24.794;2022-09-12T00:57:00;157210.28;;;17.96;100.00
5350;BME280;2697;42.144;24.794;2022-09-12T00:59:32;157190.47;;;17.88;100.00
5350;BME280;2697;42.144;24.794;2022-09-12T01:01:59;157182.50;;;17.85;100.00
5350;BME280;2697;42.144;24.794;2022-09-12T01:04:26;157182.50;;;17.85;100.00
5350;BME280;2697;42.144;24.794;2022-09-12T01:06:55;157161.31;;;17.77;100.00
5350;BME280;2697;42.144;24.794;2022-09-12T01:09:22;157166.63;;;17.79;100.00
5350;BME280;2697;42.144;24.794;2022-09-12T01:11:49;157153.38;;;17.74;100.00
5350;BME280;2697;42.144;24.794;2022-09-12T01:14:16;157149.41;;;17.73;100.00
5350;BME280;2697;42.144;24.794;2022-09-12T01:16:42;157156.00;;;17.75;100.00
5350;BME280;2697;42.144;24.794;2022-09-12T01:19:29;157146.75;;;17.72;100.00
5350;BME280;2697;42.144;24.794;2022-09-12T01:25:14;157116.28;;;17.60;100.00
5350;BME280;2697;42.144;24.794;2022-09-12T01:42:23;157126.84;;;17.64;100.00
5350;BME280;2697;42.144;24.794;2022-09-12T01:47:15;157124.22;;;17.63;100.00
5350;BME280;2697;42.144;24.794;2022-09-12T01:55:00;157108.31;;;17.57;100.00
5350;BME280;2697;42.144;24.794;2022-09-12T01:57:34;157103.03;;;17.55;100.00
5350;BME280;2697;42.144;24.794;2022-09-12T02:00:05;157105.66;;;17.56;100.00
5350;BME280;2697;42.144;24.794;2022-09-12T02:02:54;157110.94;;;17.58;100.00
5350;BME280;2697;42.144;24.794;2022-09-12T02:07:52;157116.28;;;17.60;100.00
5350;BME280;2697;42.144;24.794;2022-09-12T02:10:24;157114.97;;;17.59;100.00
5350;BME280;2697;42.144;24.794;2022-09-12T02:13:06;157136.09;;;17.67;100.00
5350;BME280;2697;42.144;24.794;2022-09-12T02:15:42;157140.13;;;17.69;100.00
5350;BME280;2697;42.144;24.794;2022-09-12T02:18:11;157161.31;;;17.77;100.00
5350;BME280;2697;42.144;24.794;2022-09-12T02:20:40;157166.63;;;17.79;100.00
5350;BME280;2697;42.144;24.794;2022-09-12T02:23:11;157182.50;;;17.85;100.00
5350;BME280;2697;42.144;24.794;2022-09-12T02:25:42;157185.13;;;17.86;100.00
5350;BME280;2697;42.144;24.794;2022-09-12T02:28:23;157182.50;;;17.85;100.00
5350;BME280;2697;42.144;24.794;2022-09-12T02:31:00;157212.97;;;17.97;100.00
5350;BME280;2697;42.144;24.794;2022-09-12T02:36:45;157186.50;;;17.87;100.00
5350;BME280;2697;42.144;24.794;2022-09-12T02:39:14;157187.84;;;17.87;100.00
5350;BME280;2697;42.144;24.794;2022-09-12T02:41:45;157179.84;;;17.84;100.00
5350;BME280;2697;42.144;24.794;2022-09-12T02:44:11;157211.66;;;17.97;100.00
5350;BME280;2697;42.144;24.794;2022-09-12T02:46:41;157214.31;;;17.98;100.00
5350;BME280;2697;42.144;24.794;2022-09-12T02:49:08;157201.03;;;17.92;100.00
5350;BME280;2697;42.144;24.794;2022-09-12T02:51:33;157193.13;;;17.89;100.00
5350;BME280;2697;42.144;24.794;2022-09-12T02:54:00;157201.03;;;17.92;100.00
5350;BME280;2697;42.144;24.794;2022-09-12T02:56:29;157183.81;;;17.86;100.00
5350;BME280;2697;42.144;24.794;2022-09-12T02:58:59;157189.16;;;17.88;100.00
5350;BME280;2697;42.144;24.794;2022-09-12T03:24:10;157231.47;;;18.04;100.00
5350;BME280;2697;42.144;24.794;2022-09-12T03:26:54;157226.19;;;18.02;100.00
5350;BME280;2697;42.144;24.794;2022-09-12T03:29:22;157227.53;;;18.03;100.00
5350;BME280;2697;42.144;24.794;2022-09-12T03:31:56;157208.97;;;17.95;100.00
5350;BME280;2697;42.144;24.794;2022-09-12T03:34:24;157207.66;;;17.95;100.00
5350;BME280;2697;42.144;24.794;2022-09-12T03:36:51;157205.00;;;17.94;100.00
5350;BME280;2697;42.144;24.794;2022-09-12T03:39:17;157207.66;;;17.95;100.00
5350;BME280;2697;42.144;24.794;2022-09-12T03:41:42;157190.47;;;17.88;100.00
5350;BME280;2697;42.144;24.794;2022-09-12T03:44:07;157203.69;;;17.93;100.00
5350;BME280;2697;42.144;24.794;2022-09-12T03:46:33;157208.97;;;17.95;100.00
5350;BME280;2697;42.144;24.794;2022-09-12T03:48:58;157185.13;;;17.86;100.00
5350;BME280;2697;42.144;24.794;2022-09-12T03:51:24;157174.56;;;17.82;100.00
5350;BME280;2697;42.144;24.794;2022-09-12T03:53:49;157185.13;;;17.86;100.00
5350;BME280;2697;42.144;24.794;2022-09-12T03:56:15;157199.72;;;17.92;100.00
5350;BME280;2697;42.144;24.794;2022-09-12T03:58:42;157201.03;;;17.92;100.00
5350;BME280;2697;42.144;24.794;2022-09-12T04:01:13;157195.75;;;17.90;100.00
5350;BME280;2697;42.144;24.794;2022-09-12T04:03:43;157190.47;;;17.88;100.00
5350;BME280;2697;42.144;24.794;2022-09-12T04:06:10;157174.56;;;17.82;100.00
5350;BME280;2697;42.144;24.794;2022-09-12T04:08:36;157210.28;;;17.96;100.00
5350;BME280;2697;42.144;24.794;2022-09-12T04:11:13;157220.91;;;18.00;100.00
5350;BME280;2697;42.144;24.794;2022-09-12T04:13:40;157296.41;;;18.29;99.23
5350;BME280;2697;42.144;24.794;2022-09-12T04:16:07;157267.28;;;18.18;99.00
5350;BME280;2697;42.144;24.794;2022-09-12T04:18:33;157264.63;;;18.17;99.09
5350;BME280;2697;42.144;24.794;2022-09-12T04:21:03;157322.88;;;18.39;98.70
5350;BME280;2697;42.144;24.794;2022-09-12T04:23:29;157407.75;;;18.72;97.88
5350;BME280;2697;42.144;24.794;2022-09-12T04:25:56;157487.22;;;19.02;95.91
5350;BME280;2697;42.144;24.794;2022-09-12T04:28:22;157548.16;;;19.26;94.55
5350;BME280;2697;42.144;24.794;2022-09-12T04:30:47;157659.59;;;19.69;92.72
5350;BME280;2697;42.144;24.794;2022-09-12T04:33:13;157670.19;;;19.73;90.84
5350;BME280;2697;42.144;24.794;2022-09-12T04:35:39;157768.34;;;20.10;90.14
5350;BME280;2697;42.144;24.794;2022-09-12T04:38:06;157707.31;;;19.87;88.42
5350;BME280;2697;42.144;24.794;2022-09-12T04:40:31;157879.78;;;20.53;87.71
5350;BME280;2697;42.144;24.794;2022-09-12T04:42:57;157887.72;;;20.56;85.81
5350;BME280;2697;42.144;24.794;2022-09-12T04:45:23;157946.13;;;20.78;84.05
5350;BME280;2697;42.144;24.794;2022-09-12T04:47:50;158024.41;;;21.09;83.35
5350;BME280;2697;42.144;24.794;2022-09-12T04:50:16;157932.84;;;20.73;83.27
5350;BME280;2697;42.144;24.794;2022-09-12T04:52:42;158036.38;;;21.13;81.90
5350;BME280;2697;42.144;24.794;2022-09-12T04:55:08;157999.22;;;20.99;82.65
5350;BME280;2697;42.144;24.794;2022-09-12T04:57:36;158096.16;;;21.36;80.75
5350;BME280;2697;42.144;24.794;2022-09-12T05:00:03;158090.84;;;21.34;79.82
5350;BME280;2697;42.144;24.794;2022-09-12T05:02:32;158177.09;;;21.67;76.25
5350;BME280;2697;42.144;24.794;2022-09-12T05:04:58;158248.81;;;21.95;76.13
5350;BME280;2697;42.144;24.794;2022-09-12T05:07:23;158264.75;;;22.01;75.96
5350;BME280;2697;42.144;24.794;2022-09-12T05:09:48;158331.22;;;22.26;72.92
5350;BME280;2697;42.144;24.794;2022-09-12T05:12:14;158320.56;;;22.22;72.60
5350;BME280;2697;42.144;24.794;2022-09-12T05:14:39;158442.78;;;22.69;70.74
5350;BME280;2697;42.144;24.794;2022-09-12T05:17:05;158440.13;;;22.68;71.22
5350;BME280;2697;42.144;24.794;2022-09-12T05:19:30;158383.03;;;22.46;70.22
5350;BME280;2697;42.144;24.794;2022-09-12T05:21:56;158514.59;;;22.96;70.07
5350;BME280;2697;42.144;24.794;2022-09-12T05:24:22;158503.97;;;22.92;68.68
5350;BME280;2697;42.144;24.794;2022-09-12T05:26:48;158555.78;;;23.12;68.72
5350;BME280;2697;42.144;24.794;2022-09-12T05:29:14;158706.03;;;23.70;64.93
5350;BME280;2697;42.144;24.794;2022-09-12T05:31:39;158616.91;;;23.36;66.15
5350;BME280;2697;42.144;24.794;2022-09-12T05:34:05;158529.22;;;23.02;65.35
5350;BME280;2697;42.144;24.794;2022-09-12T05:36:31;158623.59;;;23.38;65.08
5350;BME280;2697;42.144;24.794;2022-09-12T05:38:58;158480.00;;;22.83;65.31
5350;BME280;2697;42.144;24.794;2022-09-12T05:41:26;158682.09;;;23.60;63.54
5350;BME280;2697;42.144;24.794;2022-09-12T05:43:53;158829.69;;;24.17;59.98
5350;BME280;2697;42.144;24.794;2022-09-12T05:46:20;158828.38;;;24.16;60.23
5350;BME280;2697;42.144;24.794;2022-09-12T05:48:47;158816.41;;;24.12;61.01
5350;BME280;2697;42.144;24.794;2022-09-12T05:51:15;158898.91;;;24.43;57.08
5350;BME280;2697;42.144;24.794;2022-09-12T05:53:49;158990.72;;;24.79;57.00
5350;BME280;2697;42.144;24.794;2022-09-12T05:56:18;158812.44;;;24.10;56.95
5350;BME280;2697;42.144;24.794;2022-09-12T05:58:46;158620.94;;;23.37;59.40
5350;BME280;2697;42.144;24.794;2022-09-12T06:01:15;158817.75;;;24.12;57.14
5350;BME280;2697;42.144;24.794;2022-09-12T06:03:42;158783.16;;;23.99;57.78
5350;BME280;2697;42.144;24.794;2022-09-12T06:06:12;158533.19;;;23.03;60.66
5350;BME280;2697;42.144;24.794;2022-09-12T06:08:44;158680.78;;;23.60;58.88
5350;BME280;2697;42.144;24.794;2022-09-12T06:11:15;158824.38;;;24.15;56.79
5350;BME280;2697;42.144;24.794;2022-09-12T06:13:41;158920.19;;;24.52;55.63
5350;BME280;2697;42.144;24.794;2022-09-12T06:16:12;159075.88;;;25.11;54.08
5350;BME280;2697;42.144;24.794;2022-09-12T06:18:38;159193.03;;;25.56;52.88
5350;BME280;2697;42.144;24.794;2022-09-12T06:21:06;159304.91;;;25.99;50.54
5350;BME280;2697;42.144;24.794;2022-09-12T06:23:32;159376.81;;;26.26;50.15
5350;BME280;2697;42.144;24.794;2022-09-12T06:25:58;159327.56;;;26.07;49.07
5350;BME280;2697;42.144;24.794;2022-09-12T06:28:24;158916.22;;;24.50;53.00
5350;BME280;2697;42.144;24.794;2022-09-12T06:30:50;158623.59;;;23.38;57.28
5350;BME280;2697;42.144;24.794;2022-09-12T06:33:15;158259.47;;;21.99;62.03
5350;BME280;2697;42.144;24.794;2022-09-12T06:35:41;158198.34;;;21.75;65.23
5350;BME280;2697;42.144;24.794;2022-09-12T06:38:06;158124.00;;;21.47;68.35
5350;BME280;2697;42.144;24.794;2022-09-12T06:40:32;157991.25;;;20.96;70.19
5350;BME280;2697;42.144;24.794;2022-09-12T06:42:58;157938.19;;;20.75;71.47
5350;BME280;2697;42.144;24.794;2022-09-12T06:45:23;157936.81;;;20.75;71.53
5350;BME280;2697;42.144;24.794;2022-09-12T06:47:50;157919.59;;;20.68;73.12
5350;BME280;2697;42.144;24.794;2022-09-12T06:50:15;157922.25;;;20.69;73.09
5350;BME280;2697;42.144;24.794;2022-09-12T06:52:41;157919.59;;;20.68;72.90
5350;BME280;2697;42.144;24.794;2022-09-12T06:55:06;157964.72;;;20.86;72.38
5350;BME280;2697;42.144;24.794;2022-09-12T06:57:32;157972.66;;;20.89;72.40
5350;BME280;2697;42.144;24.794;2022-09-12T07:00:02;157966.06;;;20.86;71.04
5350;BME280;2697;42.144;24.794;2022-09-12T07:02:29;157975.31;;;20.90;71.97
5350;BME280;2697;42.144;24.794;2022-09-12T07:04:54;158043.00;;;21.16;72.34
5350;BME280;2697;42.144;24.794;2022-09-12T07:07:20;158065.56;;;21.24;72.44
5350;BME280;2697;42.144;24.794;2022-09-12T07:09:45;158102.75;;;21.39;71.44
5350;BME280;2697;42.144;24.794;2022-09-12T07:12:10;158124.00;;;21.47;70.40
5350;BME280;2697;42.144;24.794;2022-09-12T07:14:36;158116.06;;;21.44;69.07
5350;BME280;2697;42.144;24.794;2022-09-12T07:17:02;158147.91;;;21.56;69.64
5350;BME280;2697;42.144;24.794;2022-09-12T07:19:27;158163.84;;;21.62;69.52
5350;BME280;2697;42.144;24.794;2022-09-12T07:21:52;158212.97;;;21.81;68.28
5350;BME280;2697;42.144;24.794;2022-09-12T07:24:18;158219.59;;;21.83;67.03
5350;BME280;2697;42.144;24.794;2022-09-12T07:26:43;158222.25;;;21.84;67.18
5350;BME280;2697;42.144;24.794;2022-09-12T07:29:14;158201.00;;;21.76;65.01
5350;BME280;2697;42.144;24.794;2022-09-12T07:31:43;158224.91;;;21.85;64.34
5350;BME280;2697;42.144;24.794;2022-09-12T07:34:08;158239.53;;;21.91;63.38
5350;BME280;2697;42.144;24.794;2022-09-12T07:36:34;158262.09;;;22.00;62.73
5350;BME280;2697;42.144;24.794;2022-09-12T07:39:00;158287.38;;;22.09;63.48
5350;BME280;2697;42.144;24.794;2022-09-12T07:41:28;158299.31;;;22.14;62.20
5350;BME280;2697;42.144;24.794;2022-09-12T07:43:55;158361.75;;;22.38;61.62
5350;BME280;2697;42.144;24.794;2022-09-12T07:46:22;158371.03;;;22.41;62.46
5350;BME280;2697;42.144;24.794;2022-09-12T07:48:49;158385.66;;;22.47;57.57
5350;BME280;2697;42.144;24.794;2022-09-12T07:51:15;158365.75;;;22.39;57.46
5350;BME280;2697;42.144;24.794;2022-09-12T07:53:41;158320.56;;;22.22;58.48
5350;BME280;2697;42.144;24.794;2022-09-12T07:56:08;158375.06;;;22.43;60.09
5350;BME280;2697;42.144;24.794;2022-09-12T07:58:36;158396.28;;;22.51;58.13
5350;BME280;2697;42.144;24.794;2022-09-12T08:01:08;158422.84;;;22.61;58.78
5350;BME280;2697;42.144;24.794;2022-09-12T08:03:35;158453.44;;;22.73;58.51
5350;BME280;2697;42.144;24.794;2022-09-12T08:06:14;158509.28;;;22.94;57.38
5350;BME280;2697;42.144;24.794;2022-09-12T08:08:41;158521.25;;;22.99;57.21
5350;BME280;2697;42.144;24.794;2022-09-12T08:11:09;158541.16;;;23.07;56.46
5350;BME280;2697;42.144;24.794;2022-09-12T08:13:36;158533.19;;;23.03;55.90
5350;BME280;2697;42.144;24.794;2022-09-12T08:16:10;158557.13;;;23.13;54.56
5350;BME280;2697;42.144;24.794;2022-09-12T08:18:36;158566.41;;;23.16;54.77
5350;BME280;2697;42.144;24.794;2022-09-12T08:21:12;158578.38;;;23.21;54.46
5350;BME280;2697;42.144;24.794;2022-09-12T08:23:37;158597.00;;;23.28;54.54
5350;BME280;2697;42.144;24.794;2022-09-12T08:26:04;158642.22;;;23.45;52.33
5350;BME280;2697;42.144;24.794;2022-09-12T08:28:31;158618.28;;;23.36;51.73
5350;BME280;2697;42.144;24.794;2022-09-12T08:31:01;158663.44;;;23.53;52.94
5350;BME280;2697;42.144;24.794;2022-09-12T08:33:27;158682.09;;;23.60;51.92
5350;BME280;2697;42.144;24.794;2022-09-12T08:38:33;158603.63;;;23.30;52.28
5350;BME280;2697;42.144;24.794;2022-09-12T08:41:08;158582.38;;;23.22;52.11
5350;BME280;2697;42.144;24.794;2022-09-12T08:49:27;158671.44;;;23.56;50.90
5350;BME280;2697;42.144;24.794;2022-09-12T08:51:54;158675.41;;;23.58;50.97
5350;BME280;2697;42.144;24.794;2022-09-12T08:54:29;158727.31;;;23.78;50.01
5350;BME280;2697;42.144;24.794;2022-09-12T08:57:02;158739.25;;;23.82;49.66
5350;BME280;2697;42.144;24.794;2022-09-12T08:59:35;158696.75;;;23.66;49.83
5350;BME280;2697;42.144;24.794;2022-09-12T09:02:07;158737.94;;;23.82;49.77
5350;BME280;2697;42.144;24.794;2022-09-12T09:04:49;158761.88;;;23.91;50.37
5350;BME280;2697;42.144;24.794;2022-09-12T09:16:16;158780.50;;;23.98;48.84
5350;BME280;2697;42.144;24.794;2022-09-12T09:18:46;158833.69;;;24.18;48.74
5350;BME280;2697;42.144;24.794;2022-09-12T09:21:23;158886.97;;;24.39;47.27
5350;BME280;2697;42.144;24.794;2022-09-12T09:23:56;158876.28;;;24.35;47.81
5350;BME280;2697;42.144;24.794;2022-09-12T09:26:29;158873.63;;;24.34;48.55
5350;BME280;2697;42.144;24.794;2022-09-12T09:29:05;158867.00;;;24.31;47.43
5350;BME280;2697;42.144;24.794;2022-09-12T09:31:38;158878.94;;;24.36;47.42
5350;BME280;2697;42.144;24.794;2022-09-12T09:34:12;158950.78;;;24.63;47.52
5350;BME280;2697;42.144;24.794;2022-09-12T09:39:29;159046.56;;;25.00;45.95
5350;BME280;2697;42.144;24.794;2022-09-12T09:44:27;159012.00;;;24.87;46.47
5350;BME280;2697;42.144;24.794;2022-09-12T09:46:53;159041.28;;;24.98;45.06
5350;BME280;2697;42.144;24.794;2022-09-12T09:49:20;159038.59;;;24.97;45.11
5350;BME280;2697;42.144;24.794;2022-09-12T09:51:47;159091.88;;;25.17;44.74
5350;BME280;2697;42.144;24.794;2022-09-12T09:56:46;159133.16;;;25.33;44.31
5350;BME280;2697;42.144;24.794;2022-09-12T09:59:19;159078.53;;;25.12;43.68
5350;BME280;2697;42.144;24.794;2022-09-12T10:01:58;159075.88;;;25.11;43.94
5350;BME280;2697;42.144;24.794;2022-09-12T10:04:34;159121.16;;;25.28;44.04
5350;BME280;2697;42.144;24.794;2022-09-12T10:07:02;159126.47;;;25.30;43.33
5350;BME280;2697;42.144;24.794;2022-09-12T10:09:30;159059.97;;;25.05;42.79
5350;BME280;2697;42.144;24.794;2022-09-12T10:12:00;159023.94;;;24.91;43.66
5350;BME280;2697;42.144;24.794;2022-09-12T10:15:01;159031.97;;;24.94;44.03
5350;BME280;2697;42.144;24.794;2022-09-12T10:17:42;159038.59;;;24.97;44.55
5350;BME280;2697;42.144;24.794;2022-09-12T10:20:41;159125.13;;;25.30;44.95
5350;BME280;2697;42.144;24.794;2022-09-12T10:25:52;159047.91;;;25.00;43.33
5350;BME280;2697;42.144;24.794;2022-09-12T10:28:23;159051.94;;;25.02;43.54
5350;BME280;2697;42.144;24.794;2022-09-12T10:30:54;159155.78;;;25.42;42.79
5350;BME280;2697;42.144;24.794;2022-09-12T10:33:21;159197.00;;;25.57;42.81
5350;BME280;2697;42.144;24.794;2022-09-12T10:35:48;159214.31;;;25.64;42.08
5350;BME280;2697;42.144;24.794;2022-09-12T10:38:27;159227.66;;;25.69;42.72
5350;BME280;2697;42.144;24.794;2022-09-12T10:40:57;159235.69;;;25.72;42.11
5350;BME280;2697;42.144;24.794;2022-09-12T10:43:29;159239.66;;;25.74;42.31
5350;BME280;2697;42.144;24.794;2022-09-12T10:48:48;159352.84;;;26.17;41.95
5350;BME280;2697;42.144;24.794;2022-09-12T10:51:25;159363.50;;;26.21;42.23
5350;BME280;2697;42.144;24.794;2022-09-12T10:54:03;159342.19;;;26.13;42.23
5350;BME280;2697;42.144;24.794;2022-09-12T11:01:48;159323.56;;;26.06;40.91
5350;BME280;2697;42.144;24.794;2022-09-12T11:04:44;159328.88;;;26.08;41.98
5350;BME280;2697;42.144;24.794;2022-09-12T11:14:15;159387.47;;;26.30;41.03
5350;BME280;2697;42.144;24.794;2022-09-12T11:30:12;159131.81;;;25.33;41.69
5350;BME280;2697;42.144;24.794;2022-09-12T11:35:28;159183.72;;;25.52;42.14
5350;BME280;2697;42.144;24.794;2022-09-12T11:45:48;159400.78;;;26.35;40.52
5350;BME280;2697;42.144;24.794;2022-09-12T11:48:58;159390.13;;;26.31;39.49
5350;BME280;2697;42.144;24.794;2022-09-12T11:51:26;159414.13;;;26.40;39.99
5350;BME280;2697;42.144;24.794;2022-09-12T11:54:05;159378.16;;;26.27;40.23
5350;BME280;2697;42.144;24.794;2022-09-12T11:56:39;159340.84;;;26.12;41.75
5350;BME280;2697;42.144;24.794;2022-09-12T11:59:20;159390.13;;;26.31;40.72
5350;BME280;2697;42.144;24.794;2022-09-12T12:01:51;159370.13;;;26.24;40.61
5350;BME280;2697;42.144;24.794;2022-09-12T12:04:24;159347.50;;;26.15;41.27
5350;BME280;2697;42.144;24.794;2022-09-12T12:06:56;159411.47;;;26.39;41.17
5350;BME280;2697;42.144;24.794;2022-09-12T12:09:25;159451.47;;;26.55;40.10
5350;BME280;2697;42.144;24.794;2022-09-12T12:11:53;159492.72;;;26.70;40.45
5350;BME280;2697;42.144;24.794;2022-09-12T12:14:36;159560.66;;;26.96;40.11
5350;BME280;2697;42.144;24.794;2022-09-12T12:17:02;159572.69;;;27.01;39.63
5350;BME280;2697;42.144;24.794;2022-09-12T12:19:33;159424.81;;;26.45;38.87
5350;BME280;2697;42.144;24.794;2022-09-12T12:22:06;159328.88;;;26.08;39.64
5350;BME280;2697;42.144;24.794;2022-09-12T12:24:32;159259.66;;;25.81;40.53
5350;BME280;2697;42.144;24.794;2022-09-12T12:27:04;159251.69;;;25.78;41.37
5350;BME280;2697;42.144;24.794;2022-09-12T12:29:46;159294.25;;;25.95;40.60
5350;BME280;2697;42.144;24.794;2022-09-12T12:34:43;159185.06;;;25.53;42.91
5350;BME280;2697;42.144;24.794;2022-09-12T12:42:09;159233.03;;;25.71;41.07
5350;BME280;2697;42.144;24.794;2022-09-12T12:47:22;159322.19;;;26.05;40.03
5350;BME280;2697;42.144;24.794;2022-09-12T12:49:53;159264.97;;;25.83;39.65
5350;BME280;2697;42.144;24.794;2022-09-12T12:52:20;159246.31;;;25.76;40.46
5350;BME280;2697;42.144;24.794;2022-09-12T12:59:45;159342.19;;;26.13;40.85
5350;BME280;2697;42.144;24.794;2022-09-12T13:02:33;159394.09;;;26.33;40.68
5350;BME280;2697;42.144;24.794;2022-09-12T13:05:02;159434.13;;;26.48;39.32
5350;BME280;2697;42.144;24.794;2022-09-12T13:07:35;159454.13;;;26.56;39.65
5350;BME280;2697;42.144;24.794;2022-09-12T13:10:04;159354.19;;;26.18;39.89
5350;BME280;2697;42.144;24.794;2022-09-12T13:12:33;159211.66;;;25.63;40.86
5350;BME280;2697;42.144;24.794;2022-09-12T13:18:05;159135.81;;;25.34;41.22
5350;BME280;2697;42.144;24.794;2022-09-12T13:20:46;159091.88;;;25.17;41.76
5350;BME280;2697;42.144;24.794;2022-09-12T13:23:27;159133.16;;;25.33;41.47
5350;BME280;2697;42.144;24.794;2022-09-12T13:25:59;159134.47;;;25.34;41.71
5350;BME280;2697;42.144;24.794;2022-09-12T13:28:29;159139.78;;;25.36;41.75
5350;BME280;2697;42.144;24.794;2022-09-12T13:31:02;159145.09;;;25.38;42.10
5350;BME280;2697;42.144;24.794;2022-09-12T13:33:39;159177.03;;;25.50;41.67
5350;BME280;2697;42.144;24.794;2022-09-12T13:39:09;159105.22;;;25.22;42.89
5350;BME280;2697;42.144;24.794;2022-09-12T13:44:23;159099.84;;;25.20;42.73
5350;BME280;2697;42.144;24.794;2022-09-12T13:46:50;159167.72;;;25.46;42.19
5350;BME280;2697;42.144;24.794;2022-09-12T13:51:59;159243.66;;;25.75;41.26
5350;BME280;2697;42.144;24.794;2022-09-12T13:54:25;159264.97;;;25.83;40.46
5350;BME280;2697;42.144;24.794;2022-09-12T13:56:51;159233.03;;;25.71;40.94
5350;BME280;2697;42.144;24.794;2022-09-12T13:59:17;159243.66;;;25.75;40.78
5350;BME280;2697;42.144;24.794;2022-09-12T14:01:44;159244.97;;;25.76;40.76
5350;BME280;2697;42.144;24.794;2022-09-12T14:04:16;159216.97;;;25.65;40.78
5350;BME280;2697;42.144;24.794;2022-09-12T14:07:08;159280.94;;;25.90;40.74
5350;BME280;2697;42.144;24.794;2022-09-12T14:09:41;159351.53;;;26.17;40.98
5350;BME280;2697;42.144;24.794;2022-09-12T14:12:29;159262.31;;;25.82;40.44
5350;BME280;2697;42.144;24.794;2022-09-12T14:14:56;159291.59;;;25.94;40.78
5350;BME280;2697;42.144;24.794;2022-09-12T14:17:35;159267.63;;;25.84;40.21
5350;BME280;2697;42.144;24.794;2022-09-12T14:20:10;159224.94;;;25.68;40.64
5350;BME280;2697;42.144;24.794;2022-09-12T14:22:36;159271.59;;;25.86;41.32
5350;BME280;2697;42.144;24.794;2022-09-12T14:25:03;159239.66;;;25.74;40.98
5350;BME280;2697;42.144;24.794;2022-09-12T14:27:39;159178.41;;;25.50;41.40
5350;BME280;2697;42.144;24.794;2022-09-12T14:35:30;159231.69;;;25.71;40.34
5350;BME280;2697;42.144;24.794;2022-09-12T14:38:07;159270.28;;;25.85;40.63
5350;BME280;2697;42.144;24.794;2022-09-12T14:40:40;159230.38;;;25.70;40.89
5350;BME280;2697;42.144;24.794;2022-09-12T14:43:37;159195.69;;;25.57;40.97
5350;BME280;2697;42.144;24.794;2022-09-12T14:46:17;159177.03;;;25.50;41.60
5350;BME280;2697;42.144;24.794;2022-09-12T14:48:53;159171.72;;;25.48;41.31
5350;BME280;2697;42.144;24.794;2022-09-12T14:51:32;159163.75;;;25.45;41.37
5350;BME280;2697;42.144;24.794;2022-09-12T14:53:59;159138.47;;;25.35;42.24
5350;BME280;2697;42.144;24.794;2022-09-12T14:56:42;159094.53;;;25.18;42.50
5350;BME280;2697;42.144;24.794;2022-09-12T15:07:39;159123.81;;;25.29;43.36
5350;BME280;2697;42.144;24.794;2022-09-12T15:10:19;159102.50;;;25.21;43.35
5350;BME280;2697;42.144;24.794;2022-09-12T15:13:02;159094.53;;;25.18;42.91
5350;BME280;2697;42.144;24.794;2022-09-12T15:15:29;159099.84;;;25.20;43.37
5350;BME280;2697;42.144;24.794;2022-09-12T15:17:54;159115.84;;;25.26;43.37
5350;BME280;2697;42.144;24.794;2022-09-12T15:20:19;159142.44;;;25.37;42.88
5350;BME280;2697;42.144;24.794;2022-09-12T15:22:45;159075.88;;;25.11;43.13
5350;BME280;2697;42.144;24.794;2022-09-12T15:25:11;159086.56;;;25.15;42.62
5350;BME280;2697;42.144;24.794;2022-09-12T15:27:37;159049.22;;;25.01;43.16
5350;BME280;2697;42.144;24.794;2022-09-12T15:30:09;158980.03;;;24.74;43.98
5350;BME280;2697;42.144;24.794;2022-09-12T15:32:38;158933.47;;;24.57;44.18
5350;BME280;2697;42.144;24.794;2022-09-12T15:35:15;158934.84;;;24.57;44.13
5350;BME280;2697;42.144;24.794;2022-09-12T15:37:41;158862.97;;;24.30;44.76
5350;BME280;2697;42.144;24.794;2022-09-12T15:40:11;158900.25;;;24.44;44.48
5350;BME280;2697;42.144;24.794;2022-09-12T15:42:37;158858.94;;;24.28;44.41
5350;BME280;2697;42.144;24.794;2022-09-12T15:45:21;158823.06;;;24.14;44.94
5350;BME280;2697;42.144;24.794;2022-09-12T15:47:47;158793.81;;;24.03;45.44
5350;BME280;2697;42.144;24.794;2022-09-12T15:50:13;158767.22;;;23.93;45.62
5350;BME280;2697;42.144;24.794;2022-09-12T15:52:38;158744.63;;;23.84;45.91
5350;BME280;2697;42.144;24.794;2022-09-12T15:55:05;158767.22;;;23.93;45.55
5350;BME280;2697;42.144;24.794;2022-09-12T15:57:34;158740.63;;;23.83;45.34
5350;BME280;2697;42.144;24.794;2022-09-12T15:59:59;158745.94;;;23.85;45.01